sensor_id;sensor_type;location;lat;lon;timestamp;P1;durP1;ratioP1;P2;durP2;ratioP2
51866;SDS011;52862;52.504;13.480;2024-03-08T00:02:11;51.07;;;22.53;;
51866;SDS011;52862;52.504;13.480;2024-03-08T00:04:38;56.60;;;22.63;;
51866;SDS011;52862;52.504;13.480;2024-03-08T00:07:05;58.37;;;22.27;;
51866;SDS011;52862;52.504;13.480;2024-03-08T00:09:32;59.80;;;22.90;;
51866;SDS011;52862;52.504;13.480;2024-03-08T00:11:59;61.40;;;23.27;;
51866;SDS011;52862;52.504;13.480;2024-03-08T00:14:26;48.93;;;22.60;;
51866;SDS011;52862;52.504;13.480;2024-03-08T00:16:53;60.63;;;23.27;;
51866;SDS011;52862;52.504;13.480;2024-03-08T00:19:19;57.67;;;23.07;;
51866;SDS011;52862;52.504;13.480;2024-03-08T00:21:46;47.93;;;21.27;;
51866;SDS011;52862;52.504;13.480;2024-03-08T00:24:12;57.00;;;23.50;;
51866;SDS011;52862;52.504;13.480;2024-03-08T00:26:39;49.23;;;22.47;;
51866;SDS011;52862;52.504;13.480;2024-03-08T00:29:08;49.63;;;22.97;;
51866;SDS011;52862;52.504;13.480;2024-03-08T00:31:34;55.77;;;22.47;;
51866;SDS011;52862;52.504;13.480;2024-03-08T00:34:01;49.97;;;22.00;;
51866;SDS011;52862;52.504;13.480;2024-03-08T00:36:27;57.13;;;23.30;;
51866;SDS011;52862;52.504;13.480;2024-03-08T00:38:55;56.40;;;23.50;;
51866;SDS011;52862;52.504;13.480;2024-03-08T00:41:22;58.93;;;23.60;;
51866;SDS011;52862;52.504;13.480;2024-03-08T00:43:48;59.10;;;23.60;;
51866;SDS011;52862;52.504;13.480;2024-03-08T00:46:16;57.83;;;21.90;;
51866;SDS011;52862;52.504;13.480;2024-03-08T00:48:43;54.30;;;21.90;;
51866;SDS011;52862;52.504;13.480;2024-03-08T00:51:10;61.87;;;23.20;;
51866;SDS011;52862;52.504;13.480;2024-03-08T00:53:37;56.30;;;23.83;;
51866;SDS011;52862;52.504;13.480;2024-03-08T00:56:03;58.27;;;23.13;;
51866;SDS011;52862;52.504;13.480;2024-03-08T00:58:30;47.57;;;21.00;;
51866;SDS011;52862;52.504;13.480;2024-03-08T01:00:56;51.77;;;23.37;;
51866;SDS011;52862;52.504;13.480;2024-03-08T01:03:24;52.17;;;22.43;;
51866;SDS011;52862;52.504;13.480;2024-03-08T01:05:50;54.17;;;22.97;;
51866;SDS011;52862;52.504;13.480;2024-03-08T01:08:17;54.60;;;23.47;;
51866;SDS011;52862;52.504;13.480;2024-03-08T01:10:43;56.37;;;24.00;;
51866;SDS011;52862;52.504;13.480;2024-03-08T01:13:10;56.53;;;23.43;;
51866;SDS011;52862;52.504;13.480;2024-03-08T01:15:37;60.63;;;23.53;;
51866;SDS011;52862;52.504;13.480;2024-03-08T01:18:06;52.07;;;22.97;;
51866;SDS011;52862;52.504;13.480;2024-03-08T01:20:34;59.87;;;22.90;;
51866;SDS011;52862;52.504;13.480;2024-03-08T01:23:01;55.33;;;23.50;;
51866;SDS011;52862;52.504;13.480;2024-03-08T01:25:27;62.23;;;23.83;;
51866;SDS011;52862;52.504;13.480;2024-03-08T01:27:54;57.27;;;23.23;;
51866;SDS011;52862;52.504;13.480;2024-03-08T01:30:20;58.63;;;24.00;;
51866;SDS011;52862;52.504;13.480;2024-03-08T01:32:47;53.40;;;23.63;;
51866;SDS011;52862;52.504;13.480;2024-03-08T01:35:14;50.90;;;22.47;;
51866;SDS011;52862;52.504;13.480;2024-03-08T01:37:41;58.43;;;23.03;;
51866;SDS011;52862;52.504;13.480;2024-03-08T01:40:08;53.53;;;22.63;;
51866;SDS011;52862;52.504;13.480;2024-03-08T01:42:35;59.00;;;21.83;;
51866;SDS011;52862;52.504;13.480;2024-03-08T01:45:03;61.60;;;25.00;;
51866;SDS011;52862;52.504;13.480;2024-03-08T01:47:31;63.90;;;24.50;;
51866;SDS011;52862;52.504;13.480;2024-03-08T01:49:58;56.77;;;23.00;;
51866;SDS011;52862;52.504;13.480;2024-03-08T01:52:26;59.47;;;24.43;;
51866;SDS011;52862;52.504;13.480;2024-03-08T01:54:55;60.63;;;23.77;;
51866;SDS011;52862;52.504;13.480;2024-03-08T01:57:21;63.47;;;23.90;;
51866;SDS011;52862;52.504;13.480;2024-03-08T01:59:48;57.60;;;23.93;;
51866;SDS011;52862;52.504;13.480;2024-03-08T02:02:16;54.87;;;24.03;;
51866;SDS011;52862;52.504;13.480;2024-03-08T02:04:45;57.63;;;23.30;;
51866;SDS011;52862;52.504;13.480;2024-03-08T02:07:12;48.43;;;22.07;;
51866;SDS011;52862;52.504;13.480;2024-03-08T02:09:38;51.23;;;22.70;;
51866;SDS011;52862;52.504;13.480;2024-03-08T02:12:06;55.53;;;22.37;;
51866;SDS011;52862;52.504;13.480;2024-03-08T02:14:33;59.77;;;22.23;;
51866;SDS011;52862;52.504;13.480;2024-03-08T02:17:00;52.80;;;22.60;;
51866;SDS011;52862;52.504;13.480;2024-03-08T02:19:27;61.77;;;25.50;;
51866;SDS011;52862;52.504;13.480;2024-03-08T02:21:54;57.83;;;25.10;;
51866;SDS011;52862;52.504;13.480;2024-03-08T02:24:22;55.70;;;23.60;;
51866;SDS011;52862;52.504;13.480;2024-03-08T02:26:49;53.77;;;24.03;;
51866;SDS011;52862;52.504;13.480;2024-03-08T02:29:16;56.40;;;23.27;;
51866;SDS011;52862;52.504;13.480;2024-03-08T02:31:43;60.10;;;23.23;;
51866;SDS011;52862;52.504;13.480;2024-03-08T02:34:09;60.73;;;24.43;;
51866;SDS011;52862;52.504;13.480;2024-03-08T02:36:36;58.53;;;24.37;;
51866;SDS011;52862;52.504;13.480;2024-03-08T02:39:03;52.17;;;23.43;;
51866;SDS011;52862;52.504;13.480;2024-03-08T02:41:31;55.80;;;23.77;;
51866;SDS011;52862;52.504;13.480;2024-03-08T02:43:57;61.13;;;24.17;;
51866;SDS011;52862;52.504;13.480;2024-03-08T02:46:25;54.57;;;23.60;;
51866;SDS011;52862;52.504;13.480;2024-03-08T02:48:52;73.20;;;23.97;;
51866;SDS011;52862;52.504;13.480;2024-03-08T02:51:18;57.77;;;24.80;;
51866;SDS011;52862;52.504;13.480;2024-03-08T02:53:45;60.53;;;25.20;;
51866;SDS011;52862;52.504;13.480;2024-03-08T02:56:15;59.53;;;24.33;;
51866;SDS011;52862;52.504;13.480;2024-03-08T02:58:42;68.10;;;26.93;;
51866;SDS011;52862;52.504;13.480;2024-03-08T03:01:09;58.73;;;25.13;;
51866;SDS011;52862;52.504;13.480;2024-03-08T03:03:36;61.17;;;25.73;;
51866;SDS011;52862;52.504;13.480;2024-03-08T03:06:02;62.40;;;26.03;;
51866;SDS011;52862;52.504;13.480;2024-03-08T03:08:29;67.80;;;26.60;;
51866;SDS011;52862;52.504;13.480;2024-03-08T03:10:56;60.90;;;25.27;;
51866;SDS011;52862;52.504;13.480;2024-03-08T03:13:23;59.90;;;23.10;;
51866;SDS011;52862;52.504;13.480;2024-03-08T03:15:50;63.23;;;24.23;;
51866;SDS011;52862;52.504;13.480;2024-03-08T03:18:17;60.70;;;24.87;;
51866;SDS011;52862;52.504;13.480;2024-03-08T03:20:47;66.53;;;25.90;;
51866;SDS011;52862;52.504;13.480;2024-03-08T03:23:13;71.80;;;25.43;;
51866;SDS011;52862;52.504;13.480;2024-03-08T03:25:40;58.17;;;23.67;;
51866;SDS011;52862;52.504;13.480;2024-03-08T03:28:07;60.67;;;25.93;;
51866;SDS011;52862;52.504;13.480;2024-03-08T03:30:37;67.07;;;26.50;;
51866;SDS011;52862;52.504;13.480;2024-03-08T03:33:04;63.13;;;27.43;;
51866;SDS011;52862;52.504;13.480;2024-03-08T03:35:32;67.77;;;27.37;;
51866;SDS011;52862;52.504;13.480;2024-03-08T03:38:00;64.40;;;26.77;;
51866;SDS011;52862;52.504;13.480;2024-03-08T03:40:32;62.87;;;27.17;;
51866;SDS011;52862;52.504;13.480;2024-03-08T03:42:59;73.47;;;28.20;;
51866;SDS011;52862;52.504;13.480;2024-03-08T03:45:26;66.67;;;25.63;;
51866;SDS011;52862;52.504;13.480;2024-03-08T03:47:53;54.20;;;25.03;;
51866;SDS011;52862;52.504;13.480;2024-03-08T03:50:19;70.07;;;26.03;;
51866;SDS011;52862;52.504;13.480;2024-03-08T03:52:46;62.93;;;27.60;;
51866;SDS011;52862;52.504;13.480;2024-03-08T03:55:13;66.53;;;27.07;;
51866;SDS011;52862;52.504;13.480;2024-03-08T03:57:40;75.93;;;29.00;;
51866;SDS011;52862;52.504;13.480;2024-03-08T04:00:07;67.37;;;28.63;;
51866;SDS011;52862;52.504;13.480;2024-03-08T04:02:36;67.37;;;26.80;;
51866;SDS011;52862;52.504;13.480;2024-03-08T04:05:05;65.47;;;28.27;;
51866;SDS011;52862;52.504;13.480;2024-03-08T04:07:32;73.87;;;27.03;;
51866;SDS011;52862;52.504;13.480;2024-03-08T04:09:59;66.40;;;26.83;;
51866;SDS011;52862;52.504;13.480;2024-03-08T04:12:26;62.57;;;27.43;;
51866;SDS011;52862;52.504;13.480;2024-03-08T04:14:54;65.87;;;26.80;;
51866;SDS011;52862;52.504;13.480;2024-03-08T04:17:21;69.47;;;28.00;;
51866;SDS011;52862;52.504;13.480;2024-03-08T04:19:49;65.87;;;27.30;;
51866;SDS011;52862;52.504;13.480;2024-03-08T04:22:16;68.70;;;28.17;;
51866;SDS011;52862;52.504;13.480;2024-03-08T04:24:43;69.30;;;28.13;;
51866;SDS011;52862;52.504;13.480;2024-03-08T04:27:10;67.17;;;27.90;;
51866;SDS011;52862;52.504;13.480;2024-03-08T04:29:37;66.83;;;28.57;;
51866;SDS011;52862;52.504;13.480;2024-03-08T04:32:04;82.40;;;28.37;;
51866;SDS011;52862;52.504;13.480;2024-03-08T04:34:32;65.90;;;27.00;;
51866;SDS011;52862;52.504;13.480;2024-03-08T04:37:00;69.67;;;28.13;;
51866;SDS011;52862;52.504;13.480;2024-03-08T04:39:27;62.53;;;27.60;;
51866;SDS011;52862;52.504;13.480;2024-03-08T04:41:54;72.20;;;29.07;;
51866;SDS011;52862;52.504;13.480;2024-03-08T04:44:23;66.73;;;28.40;;
51866;SDS011;52862;52.504;13.480;2024-03-08T04:46:50;80.70;;;28.73;;
51866;SDS011;52862;52.504;13.480;2024-03-08T04:49:16;71.47;;;28.70;;
51866;SDS011;52862;52.504;13.480;2024-03-08T04:51:43;67.80;;;28.47;;
51866;SDS011;52862;52.504;13.480;2024-03-08T04:54:10;69.70;;;28.60;;
51866;SDS011;52862;52.504;13.480;2024-03-08T04:56:38;84.10;;;29.23;;
51866;SDS011;52862;52.504;13.480;2024-03-08T04:59:05;70.87;;;28.43;;
51866;SDS011;52862;52.504;13.480;2024-03-08T05:01:33;73.13;;;29.03;;
51866;SDS011;52862;52.504;13.480;2024-03-08T05:04:01;74.33;;;30.73;;
51866;SDS011;52862;52.504;13.480;2024-03-08T05:06:31;80.57;;;30.50;;
51866;SDS011;52862;52.504;13.480;2024-03-08T05:08:59;76.70;;;30.03;;
51866;SDS011;52862;52.504;13.480;2024-03-08T05:11:25;77.33;;;30.07;;
51866;SDS011;52862;52.504;13.480;2024-03-08T05:13:53;71.80;;;29.13;;
51866;SDS011;52862;52.504;13.480;2024-03-08T05:16:20;80.97;;;31.80;;
51866;SDS011;52862;52.504;13.480;2024-03-08T05:18:48;86.03;;;31.90;;
51866;SDS011;52862;52.504;13.480;2024-03-08T05:21:15;70.53;;;28.33;;
51866;SDS011;52862;52.504;13.480;2024-03-08T05:23:45;72.97;;;30.20;;
51866;SDS011;52862;52.504;13.480;2024-03-08T05:26:13;80.07;;;30.83;;
51866;SDS011;52862;52.504;13.480;2024-03-08T05:28:39;69.20;;;29.73;;
51866;SDS011;52862;52.504;13.480;2024-03-08T05:31:07;83.37;;;31.50;;
51866;SDS011;52862;52.504;13.480;2024-03-08T05:33:33;72.73;;;29.17;;
51866;SDS011;52862;52.504;13.480;2024-03-08T05:36:00;74.27;;;29.60;;
51866;SDS011;52862;52.504;13.480;2024-03-08T05:38:27;74.20;;;30.30;;
51866;SDS011;52862;52.504;13.480;2024-03-08T05:40:54;76.97;;;31.13;;
51866;SDS011;52862;52.504;13.480;2024-03-08T05:43:20;78.07;;;32.13;;
51866;SDS011;52862;52.504;13.480;2024-03-08T05:45:47;79.57;;;31.90;;
51866;SDS011;52862;52.504;13.480;2024-03-08T05:48:14;72.57;;;30.30;;
51866;SDS011;52862;52.504;13.480;2024-03-08T05:50:43;91.50;;;33.93;;
51866;SDS011;52862;52.504;13.480;2024-03-08T05:53:09;79.87;;;31.77;;
51866;SDS011;52862;52.504;13.480;2024-03-08T05:55:36;78.70;;;31.33;;
51866;SDS011;52862;52.504;13.480;2024-03-08T05:58:03;72.17;;;30.87;;
51866;SDS011;52862;52.504;13.480;2024-03-08T06:00:29;85.03;;;32.07;;
51866;SDS011;52862;52.504;13.480;2024-03-08T06:02:56;82.93;;;32.30;;
51866;SDS011;52862;52.504;13.480;2024-03-08T06:05:24;80.67;;;32.27;;
51866;SDS011;52862;52.504;13.480;2024-03-08T06:07:51;82.17;;;33.20;;
51866;SDS011;52862;52.504;13.480;2024-03-08T06:10:18;72.00;;;30.00;;
51866;SDS011;52862;52.504;13.480;2024-03-08T06:12:45;86.83;;;34.00;;
51866;SDS011;52862;52.504;13.480;2024-03-08T06:15:12;73.13;;;30.70;;
51866;SDS011;52862;52.504;13.480;2024-03-08T06:17:40;80.43;;;31.37;;
51866;SDS011;52862;52.504;13.480;2024-03-08T06:20:07;80.70;;;32.27;;
51866;SDS011;52862;52.504;13.480;2024-03-08T06:22:37;77.47;;;31.63;;
51866;SDS011;52862;52.504;13.480;2024-03-08T06:25:04;100.20;;;36.03;;
51866;SDS011;52862;52.504;13.480;2024-03-08T06:27:32;83.67;;;33.17;;
51866;SDS011;52862;52.504;13.480;2024-03-08T06:29:59;92.50;;;34.20;;
51866;SDS011;52862;52.504;13.480;2024-03-08T06:32:26;86.23;;;32.33;;
51866;SDS011;52862;52.504;13.480;2024-03-08T06:34:53;85.33;;;32.07;;
51866;SDS011;52862;52.504;13.480;2024-03-08T06:37:19;72.23;;;31.00;;
51866;SDS011;52862;52.504;13.480;2024-03-08T06:39:48;90.30;;;31.87;;
51866;SDS011;52862;52.504;13.480;2024-03-08T06:42:16;88.00;;;34.70;;
51866;SDS011;52862;52.504;13.480;2024-03-08T06:44:43;90.23;;;34.53;;
51866;SDS011;52862;52.504;13.480;2024-03-08T06:47:15;81.93;;;33.63;;
51866;SDS011;52862;52.504;13.480;2024-03-08T06:49:41;82.47;;;33.93;;
51866;SDS011;52862;52.504;13.480;2024-03-08T06:52:08;82.70;;;33.47;;
51866;SDS011;52862;52.504;13.480;2024-03-08T06:54:35;83.03;;;32.00;;
51866;SDS011;52862;52.504;13.480;2024-03-08T06:57:02;79.27;;;31.70;;
51866;SDS011;52862;52.504;13.480;2024-03-08T06:59:29;80.33;;;31.27;;
51866;SDS011;52862;52.504;13.480;2024-03-08T07:01:56;87.67;;;32.50;;
51866;SDS011;52862;52.504;13.480;2024-03-08T07:04:22;75.60;;;29.53;;
51866;SDS011;52862;52.504;13.480;2024-03-08T07:06:52;74.60;;;30.77;;
51866;SDS011;52862;52.504;13.480;2024-03-08T07:09:18;78.37;;;29.37;;
51866;SDS011;52862;52.504;13.480;2024-03-08T07:11:45;60.57;;;27.13;;
51866;SDS011;52862;52.504;13.480;2024-03-08T07:14:13;68.87;;;28.80;;
51866;SDS011;52862;52.504;13.480;2024-03-08T07:16:40;61.63;;;27.73;;
51866;SDS011;52862;52.504;13.480;2024-03-08T07:19:07;73.60;;;28.60;;
51866;SDS011;52862;52.504;13.480;2024-03-08T07:21:34;71.20;;;27.03;;
51866;SDS011;52862;52.504;13.480;2024-03-08T07:24:00;68.83;;;27.63;;
51866;SDS011;52862;52.504;13.480;2024-03-08T07:26:46;80.50;;;27.73;;
51866;SDS011;52862;52.504;13.480;2024-03-08T07:29:16;77.93;;;28.87;;
51866;SDS011;52862;52.504;13.480;2024-03-08T07:31:42;59.90;;;26.50;;
51866;SDS011;52862;52.504;13.480;2024-03-08T07:34:16;70.77;;;29.20;;
51866;SDS011;52862;52.504;13.480;2024-03-08T07:36:43;60.20;;;26.73;;
51866;SDS011;52862;52.504;13.480;2024-03-08T07:39:09;63.50;;;27.40;;
51866;SDS011;52862;52.504;13.480;2024-03-08T07:41:37;61.43;;;27.50;;
51866;SDS011;52862;52.504;13.480;2024-03-08T07:44:06;67.37;;;28.63;;
51866;SDS011;52862;52.504;13.480;2024-03-08T07:46:33;66.77;;;27.27;;
51866;SDS011;52862;52.504;13.480;2024-03-08T07:49:00;62.83;;;26.77;;
51866;SDS011;52862;52.504;13.480;2024-03-08T07:51:26;60.97;;;25.30;;
51866;SDS011;52862;52.504;13.480;2024-03-08T07:53:53;70.47;;;26.03;;
51866;SDS011;52862;52.504;13.480;2024-03-08T07:56:20;63.10;;;26.60;;
51866;SDS011;52862;52.504;13.480;2024-03-08T07:58:47;62.40;;;26.20;;
51866;SDS011;52862;52.504;13.480;2024-03-08T08:01:15;66.73;;;26.87;;
51866;SDS011;52862;52.504;13.480;2024-03-08T08:03:43;60.00;;;26.40;;
51866;SDS011;52862;52.504;13.480;2024-03-08T08:06:10;63.97;;;26.13;;
51866;SDS011;52862;52.504;13.480;2024-03-08T08:08:41;62.13;;;25.90;;
51866;SDS011;52862;52.504;13.480;2024-03-08T08:11:08;68.53;;;28.10;;
51866;SDS011;52862;52.504;13.480;2024-03-08T08:13:35;60.63;;;26.43;;
51866;SDS011;52862;52.504;13.480;2024-03-08T08:16:02;58.20;;;27.10;;
51866;SDS011;52862;52.504;13.480;2024-03-08T08:18:29;52.83;;;25.23;;
51866;SDS011;52862;52.504;13.480;2024-03-08T08:20:56;58.17;;;25.90;;
51866;SDS011;52862;52.504;13.480;2024-03-08T08:23:23;63.33;;;27.37;;
51866;SDS011;52862;52.504;13.480;2024-03-08T08:25:49;72.23;;;27.73;;
51866;SDS011;52862;52.504;13.480;2024-03-08T08:28:16;57.10;;;26.13;;
51866;SDS011;52862;52.504;13.480;2024-03-08T08:30:44;53.33;;;24.10;;
51866;SDS011;52862;52.504;13.480;2024-03-08T08:33:11;72.53;;;25.33;;
51866;SDS011;52862;52.504;13.480;2024-03-08T08:35:38;56.13;;;24.50;;
51866;SDS011;52862;52.504;13.480;2024-03-08T08:38:06;59.20;;;26.30;;
51866;SDS011;52862;52.504;13.480;2024-03-08T08:40:33;60.97;;;24.87;;
51866;SDS011;52862;52.504;13.480;2024-03-08T08:43:01;57.90;;;23.47;;
51866;SDS011;52862;52.504;13.480;2024-03-08T08:45:30;61.50;;;23.07;;
51866;SDS011;52862;52.504;13.480;2024-03-08T08:47:57;59.67;;;24.87;;
51866;SDS011;52862;52.504;13.480;2024-03-08T08:50:26;59.03;;;25.30;;
51866;SDS011;52862;52.504;13.480;2024-03-08T08:52:53;58.80;;;24.57;;
51866;SDS011;52862;52.504;13.480;2024-03-08T08:55:21;60.50;;;24.40;;
51866;SDS011;52862;52.504;13.480;2024-03-08T08:57:51;55.43;;;23.40;;
51866;SDS011;52862;52.504;13.480;2024-03-08T09:00:18;53.47;;;24.20;;
51866;SDS011;52862;52.504;13.480;2024-03-08T09:02:46;57.37;;;25.33;;
51866;SDS011;52862;52.504;13.480;2024-03-08T09:05:13;57.30;;;24.80;;
51866;SDS011;52862;52.504;13.480;2024-03-08T09:07:40;57.33;;;23.67;;
51866;SDS011;52862;52.504;13.480;2024-03-08T09:10:07;61.83;;;24.80;;
51866;SDS011;52862;52.504;13.480;2024-03-08T09:12:44;53.37;;;22.93;;
51866;SDS011;52862;52.504;13.480;2024-03-08T09:15:11;60.37;;;25.57;;
51866;SDS011;52862;52.504;13.480;2024-03-08T09:17:38;58.03;;;25.00;;
51866;SDS011;52862;52.504;13.480;2024-03-08T09:20:06;61.63;;;25.07;;
51866;SDS011;52862;52.504;13.480;2024-03-08T09:22:33;63.60;;;24.83;;
51866;SDS011;52862;52.504;13.480;2024-03-08T09:24:59;55.87;;;24.97;;
51866;SDS011;52862;52.504;13.480;2024-03-08T09:27:26;58.03;;;26.27;;
51866;SDS011;52862;52.504;13.480;2024-03-08T09:29:54;61.53;;;25.63;;
51866;SDS011;52862;52.504;13.480;2024-03-08T09:32:21;56.20;;;26.33;;
51866;SDS011;52862;52.504;13.480;2024-03-08T09:34:48;54.23;;;24.97;;
51866;SDS011;52862;52.504;13.480;2024-03-08T09:37:15;54.67;;;24.73;;
51866;SDS011;52862;52.504;13.480;2024-03-08T09:39:43;56.20;;;24.23;;
51866;SDS011;52862;52.504;13.480;2024-03-08T09:42:10;60.87;;;23.07;;
51866;SDS011;52862;52.504;13.480;2024-03-08T09:44:43;58.27;;;24.33;;
51866;SDS011;52862;52.504;13.480;2024-03-08T09:47:12;55.27;;;25.93;;
51866;SDS011;52862;52.504;13.480;2024-03-08T09:49:39;49.03;;;23.20;;
51866;SDS011;52862;52.504;13.480;2024-03-08T09:52:06;51.43;;;23.63;;
51866;SDS011;52862;52.504;13.480;2024-03-08T09:54:34;57.17;;;22.87;;
51866;SDS011;52862;52.504;13.480;2024-03-08T09:57:01;59.70;;;23.20;;
51866;SDS011;52862;52.504;13.480;2024-03-08T09:59:29;52.17;;;22.83;;
51866;SDS011;52862;52.504;13.480;2024-03-08T10:02:12;53.17;;;22.07;;
51866;SDS011;52862;52.504;13.480;2024-03-08T10:04:41;49.97;;;21.90;;
51866;SDS011;52862;52.504;13.480;2024-03-08T10:07:09;52.73;;;22.20;;
51866;SDS011;52862;52.504;13.480;2024-03-08T10:09:36;48.53;;;22.40;;
51866;SDS011;52862;52.504;13.480;2024-03-08T10:12:04;50.60;;;22.87;;
51866;SDS011;52862;52.504;13.480;2024-03-08T10:14:31;54.87;;;22.57;;
51866;SDS011;52862;52.504;13.480;2024-03-08T10:16:57;41.43;;;21.77;;
51866;SDS011;52862;52.504;13.480;2024-03-08T10:19:26;37.43;;;18.73;;
51866;SDS011;52862;52.504;13.480;2024-03-08T10:21:53;45.87;;;19.87;;
51866;SDS011;52862;52.504;13.480;2024-03-08T10:24:19;45.40;;;21.33;;
51866;SDS011;52862;52.504;13.480;2024-03-08T10:26:46;46.07;;;21.67;;
51866;SDS011;52862;52.504;13.480;2024-03-08T10:29:13;44.20;;;20.70;;
51866;SDS011;52862;52.504;13.480;2024-03-08T10:31:43;47.93;;;20.97;;
51866;SDS011;52862;52.504;13.480;2024-03-08T10:34:10;53.77;;;20.20;;
51866;SDS011;52862;52.504;13.480;2024-03-08T10:36:37;47.57;;;20.23;;
51866;SDS011;52862;52.504;13.480;2024-03-08T10:39:06;41.67;;;18.90;;
51866;SDS011;52862;52.504;13.480;2024-03-08T10:41:43;37.37;;;18.37;;
51866;SDS011;52862;52.504;13.480;2024-03-08T10:44:17;37.30;;;17.63;;
51866;SDS011;52862;52.504;13.480;2024-03-08T10:46:59;42.10;;;19.07;;
51866;SDS011;52862;52.504;13.480;2024-03-08T10:49:30;39.77;;;18.57;;
51866;SDS011;52862;52.504;13.480;2024-03-08T10:52:02;51.20;;;18.77;;
51866;SDS011;52862;52.504;13.480;2024-03-08T10:54:29;37.80;;;18.77;;
51866;SDS011;52862;52.504;13.480;2024-03-08T10:56:57;51.50;;;19.17;;
51866;SDS011;52862;52.504;13.480;2024-03-08T10:59:26;41.40;;;17.63;;
51866;SDS011;52862;52.504;13.480;2024-03-08T11:01:55;41.63;;;18.27;;
51866;SDS011;52862;52.504;13.480;2024-03-08T11:04:22;42.17;;;19.97;;
51866;SDS011;52862;52.504;13.480;2024-03-08T11:06:50;48.07;;;20.33;;
51866;SDS011;52862;52.504;13.480;2024-03-08T11:09:27;43.40;;;19.57;;
51866;SDS011;52862;52.504;13.480;2024-03-08T11:14:51;36.97;;;18.63;;
51866;SDS011;52862;52.504;13.480;2024-03-08T11:17:25;39.60;;;18.50;;
51866;SDS011;52862;52.504;13.480;2024-03-08T11:20:10;44.20;;;19.17;;
51866;SDS011;52862;52.504;13.480;2024-03-08T11:22:41;48.07;;;18.50;;
51866;SDS011;52862;52.504;13.480;2024-03-08T11:25:31;43.37;;;18.53;;
51866;SDS011;52862;52.504;13.480;2024-03-08T11:28:07;44.20;;;17.90;;
51866;SDS011;52862;52.504;13.480;2024-03-08T11:30:36;40.00;;;18.43;;
51866;SDS011;52862;52.504;13.480;2024-03-08T11:33:04;42.13;;;18.87;;
51866;SDS011;52862;52.504;13.480;2024-03-08T11:35:31;46.77;;;17.97;;
51866;SDS011;52862;52.504;13.480;2024-03-08T11:37:59;44.67;;;19.33;;
51866;SDS011;52862;52.504;13.480;2024-03-08T11:40:26;39.77;;;18.63;;
51866;SDS011;52862;52.504;13.480;2024-03-08T11:42:53;36.77;;;17.27;;
51866;SDS011;52862;52.504;13.480;2024-03-08T11:45:21;39.83;;;17.60;;
51866;SDS011;52862;52.504;13.480;2024-03-08T11:47:48;43.60;;;19.30;;
51866;SDS011;52862;52.504;13.480;2024-03-08T11:50:16;42.50;;;19.20;;
51866;SDS011;52862;52.504;13.480;2024-03-08T11:52:44;39.50;;;18.03;;
51866;SDS011;52862;52.504;13.480;2024-03-08T11:55:11;41.37;;;19.47;;
51866;SDS011;52862;52.504;13.480;2024-03-08T11:57:38;40.87;;;18.07;;
51866;SDS011;52862;52.504;13.480;2024-03-08T12:00:06;40.13;;;19.10;;
51866;SDS011;52862;52.504;13.480;2024-03-08T12:03:00;40.73;;;18.53;;
51866;SDS011;52862;52.504;13.480;2024-03-08T12:05:27;46.93;;;18.73;;
51866;SDS011;52862;52.504;13.480;2024-03-08T12:07:56;41.87;;;18.40;;
51866;SDS011;52862;52.504;13.480;2024-03-08T12:10:23;40.70;;;18.87;;
51866;SDS011;52862;52.504;13.480;2024-03-08T12:12:52;44.37;;;19.60;;
51866;SDS011;52862;52.504;13.480;2024-03-08T12:15:21;47.47;;;18.73;;
51866;SDS011;52862;52.504;13.480;2024-03-08T12:17:49;45.10;;;19.80;;
51866;SDS011;52862;52.504;13.480;2024-03-08T12:20:17;38.63;;;18.83;;
51866;SDS011;52862;52.504;13.480;2024-03-08T12:22:44;41.57;;;19.70;;
51866;SDS011;52862;52.504;13.480;2024-03-08T12:25:11;40.53;;;18.90;;
51866;SDS011;52862;52.504;13.480;2024-03-08T12:27:38;39.20;;;17.70;;
51866;SDS011;52862;52.504;13.480;2024-03-08T12:30:19;43.73;;;19.70;;
51866;SDS011;52862;52.504;13.480;2024-03-08T12:32:52;38.67;;;18.47;;
51866;SDS011;52862;52.504;13.480;2024-03-08T12:35:22;37.80;;;17.97;;
51866;SDS011;52862;52.504;13.480;2024-03-08T12:37:50;42.73;;;19.10;;
51866;SDS011;52862;52.504;13.480;2024-03-08T12:40:18;44.67;;;19.07;;
51866;SDS011;52862;52.504;13.480;2024-03-08T12:42:51;44.37;;;18.10;;
51866;SDS011;52862;52.504;13.480;2024-03-08T12:45:17;37.87;;;19.13;;
51866;SDS011;52862;52.504;13.480;2024-03-08T12:47:44;46.93;;;18.47;;
51866;SDS011;52862;52.504;13.480;2024-03-08T12:50:11;36.47;;;18.70;;
51866;SDS011;52862;52.504;13.480;2024-03-08T12:52:38;35.40;;;16.13;;
51866;SDS011;52862;52.504;13.480;2024-03-08T12:55:04;40.07;;;18.50;;
51866;SDS011;52862;52.504;13.480;2024-03-08T12:57:33;42.53;;;17.93;;
51866;SDS011;52862;52.504;13.480;2024-03-08T13:00:00;39.00;;;18.03;;
51866;SDS011;52862;52.504;13.480;2024-03-08T13:02:28;35.37;;;17.43;;
51866;SDS011;52862;52.504;13.480;2024-03-08T13:04:56;42.77;;;19.43;;
51866;SDS011;52862;52.504;13.480;2024-03-08T13:07:23;36.97;;;17.87;;
51866;SDS011;52862;52.504;13.480;2024-03-08T13:09:51;40.30;;;18.20;;
51866;SDS011;52862;52.504;13.480;2024-03-08T13:12:18;41.07;;;18.37;;
51866;SDS011;52862;52.504;13.480;2024-03-08T13:14:45;37.43;;;17.43;;
51866;SDS011;52862;52.504;13.480;2024-03-08T13:17:12;37.83;;;18.03;;
51866;SDS011;52862;52.504;13.480;2024-03-08T13:19:39;36.17;;;17.17;;
51866;SDS011;52862;52.504;13.480;2024-03-08T13:22:07;34.03;;;16.70;;
51866;SDS011;52862;52.504;13.480;2024-03-08T13:24:38;35.40;;;17.60;;
51866;SDS011;52862;52.504;13.480;2024-03-08T13:27:06;37.87;;;17.83;;
51866;SDS011;52862;52.504;13.480;2024-03-08T13:29:45;30.67;;;16.47;;
51866;SDS011;52862;52.504;13.480;2024-03-08T13:32:13;32.77;;;16.47;;
51866;SDS011;52862;52.504;13.480;2024-03-08T13:34:41;32.37;;;15.77;;
51866;SDS011;52862;52.504;13.480;2024-03-08T13:37:08;35.03;;;17.10;;
51866;SDS011;52862;52.504;13.480;2024-03-08T13:39:35;38.13;;;17.50;;
51866;SDS011;52862;52.504;13.480;2024-03-08T13:42:06;28.43;;;15.67;;
51866;SDS011;52862;52.504;13.480;2024-03-08T13:44:35;29.67;;;16.87;;
51866;SDS011;52862;52.504;13.480;2024-03-08T13:47:02;34.13;;;16.07;;
51866;SDS011;52862;52.504;13.480;2024-03-08T13:49:30;27.93;;;14.97;;
51866;SDS011;52862;52.504;13.480;2024-03-08T13:51:57;31.60;;;15.57;;
51866;SDS011;52862;52.504;13.480;2024-03-08T13:54:25;28.50;;;15.10;;
51866;SDS011;52862;52.504;13.480;2024-03-08T13:56:52;30.80;;;15.37;;
51866;SDS011;52862;52.504;13.480;2024-03-08T13:59:19;27.03;;;14.27;;
51866;SDS011;52862;52.504;13.480;2024-03-08T14:01:48;32.83;;;16.43;;
51866;SDS011;52862;52.504;13.480;2024-03-08T14:04:14;30.57;;;14.63;;
51866;SDS011;52862;52.504;13.480;2024-03-08T14:06:43;30.95;;;15.00;;
51866;SDS011;52862;52.504;13.480;2024-03-08T14:09:10;33.80;;;16.30;;
51866;SDS011;52862;52.504;13.480;2024-03-08T14:11:43;35.50;;;17.43;;
51866;SDS011;52862;52.504;13.480;2024-03-08T14:14:10;34.63;;;16.38;;
51866;SDS011;52862;52.504;13.480;2024-03-08T14:16:38;35.87;;;17.03;;